Time;durP1;ratioP1;P1;durP2;ratioP2;P2;SDS_P1;SDS_P2;PMS_P1;PMS_P2;Temp;Humidity;BMP_temperature;BMP_pressure;BME280_temperature;BME280_humidity;BME280_pressure;Samples;Min_cycle;Max_cycle;Signal;HPM_P1;HPM_P2
2023/01/25 00:00:18;;;;;;;;;118.33;97.00;;;;;-0.45;100.00;101139.00;6284910;20;3702401;-53
2023/01/25 00:02:48;;;;;;;;;187.00;145.50;;;;;-0.58;100.00;101139.78;6282248;20;3726398;-53
2023/01/25 00:05:18;;;;;;;;;147.00;117.33;;;;;-0.77;100.00;101144.94;6282301;20;3709745;-52
2023/01/25 00:07:49;;;;;;;;;155.00;127.00;;;;;-0.42;100.00;101144.34;6284582;20;3713848;-58
2023/01/25 00:10:19;;;;;;;;;146.00;108.25;;;;;-0.38;100.00;101146.09;6315880;20;3717977;-55
2023/01/25 00:12:49;;;;;;;;;115.00;90.00;;;;;-0.48;100.00;101152.19;6316288;20;3687812;-54
2023/01/25 00:15:19;;;;;;;;;110.00;93.67;;;;;-0.48;100.00;101152.19;6279465;20;3683613;-55
2023/01/25 00:17:49;;;;;;;;;107.33;84.67;;;;;-0.55;100.00;101155.66;6281417;20;3689814;-56
2023/01/25 00:20:18;;;;;;;;;105.00;77.00;;;;;-0.63;100.00;101149.44;6280425;20;3677335;-58
2023/01/25 00:22:48;;;;;;;;;98.67;72.00;;;;;-0.81;100.00;101151.06;6280476;20;3670118;-57
2023/01/25 00:25:17;;;;;;;;;79.33;53.00;;;;;-0.73;100.00;101145.84;6316223;20;3597127;-59
2023/01/25 00:27:46;;;;;;;;;103.33;73.00;;;;;-0.67;100.00;101157.31;6315930;20;3680549;-59
2023/01/25 00:30:16;;;;;;;;;94.00;72.33;;;;;-0.53;100.00;101160.06;6278946;20;3650656;-59
2023/01/25 00:33:32;;;;;;;;;98.00;73.33;;;;;-0.46;100.00;101158.34;6316679;20;3657545;-58
2023/01/25 00:36:38;;;;;;;;;87.00;64.33;;;;;-0.43;100.00;101157.50;6318226;20;2889999;-59
2023/01/25 00:39:12;;;;;;;;;93.00;70.67;;;;;-0.45;100.00;101163.66;6313662;20;3652327;-59
2023/01/25 00:41:43;;;;;;;;;94.67;72.00;;;;;-0.36;100.00;101160.19;6313932;20;3670213;-58
2023/01/25 00:44:13;;;;;;;;;94.00;70.00;;;;;-0.50;100.00;101164.47;6318144;20;3652452;-59
2023/01/25 00:46:43;;;;;;;;;88.00;67.00;;;;;-0.44;100.00;101167.19;6316596;20;3643037;-59
2023/01/25 00:49:25;;;;;;;;;96.33;72.67;;;;;-0.55;100.00;101160.94;6315925;20;3656553;-58
2023/01/25 00:51:55;;;;;;;;;87.00;64.00;;;;;-0.44;100.00;101169.81;6317962;20;3649206;-58
2023/01/25 00:54:25;;;;;;;;;85.00;66.33;;;;;-0.44;100.00;101164.53;6318184;20;3641911;-59
2023/01/25 00:56:55;;;;;;;;;91.00;64.67;;;;;-0.51;100.00;101168.88;6316010;20;3654437;-57
2023/01/25 00:59:25;;;;;;;;;79.50;63.00;;;;;-0.41;100.00;101159.28;6316399;20;2879465;-59
2023/01/25 01:01:54;;;;;;;;;83.00;62.50;;;;;-0.68;100.00;101163.47;6280595;20;2867036;-59
2023/01/25 01:04:24;;;;;;;;;86.33;63.00;;;;;-0.37;100.00;101171.63;6284467;20;3649359;-59
2023/01/25 01:06:55;;;;;;;;;87.33;66.00;;;;;-0.35;100.00;101169.88;6283801;20;3658622;-59
2023/01/25 01:09:25;;;;;;;;;83.67;63.67;;;;;-0.30;100.00;101157.59;6313408;20;2882645;-57
2023/01/25 01:11:55;;;;;;;;;78.00;60.33;;;;;-0.45;100.00;101162.75;6313311;20;2889951;-58
2023/01/25 01:14:24;;;;;;;;;84.67;61.33;;;;;-0.37;100.00;101165.44;6312722;20;3647176;-58
2023/01/25 01:16:54;;;;;;;;;79.00;61.33;;;;;-0.50;100.00;101168.03;6314594;20;2881708;-59
2023/01/25 01:19:26;;;;;;;;;84.00;59.33;;;;;-0.54;100.00;101162.69;6312985;20;2903519;-58
2023/01/25 01:21:55;;;;;;;;;79.33;61.67;;;;;-0.53;100.00;101164.47;6316257;20;2887790;-59
2023/01/25 01:24:24;;;;;;;;;78.00;59.00;;;;;-0.52;100.00;101171.53;6313593;20;2885705;-58
2023/01/25 01:26:54;;;;;;;;;85.67;64.67;;;;;-0.69;100.00;101168.72;6281928;20;3663811;-59
2023/01/25 01:29:23;;;;;;;;;72.50;57.00;;;;;-0.69;100.00;101163.44;6313025;20;2872161;-58
2023/01/25 01:31:52;;;;;;;;;84.00;61.00;;;;;-0.75;100.00;101164.28;6283522;20;2906609;-59
2023/01/25 01:34:22;;;;;;;;;84.33;65.33;;;;;-0.65;100.00;101162.63;6311624;20;2895121;-59
2023/01/25 01:36:52;;;;;;;;;94.33;67.00;;;;;-0.58;100.00;101169.72;6311515;20;3649318;-59
2023/01/25 01:39:21;;;;;;;;;84.33;62.33;;;;;-0.77;100.00;101157.22;6312216;20;3646260;-59
2023/01/25 01:41:51;;;;;;;;;87.33;64.67;;;;;-0.93;100.00;101165.00;6312903;20;3635737;-58
2023/01/25 01:44:52;;;;;;;;;86.33;61.00;;;;;-0.94;100.00;101165.00;6314378;20;3662187;-59
2023/01/25 01:47:38;;;;;;;;;80.67;62.00;;;;;-0.98;100.00;101160.56;6310865;20;2884177;-59
2023/01/25 01:50:23;;;;;;;;;84.33;59.00;;;;;-0.82;100.00;101162.47;6310489;20;2906024;-58
2023/01/25 01:52:52;;;;;;;;;78.67;62.00;;;;;-1.03;100.00;101163.16;6311936;20;3632561;-57
2023/01/25 01:55:23;;;;;;;;;70.00;59.00;;;;;-1.12;100.00;101150.78;6309837;20;2500343;-58
2023/01/25 01:57:59;;;;;;;;;80.67;58.33;;;;;-1.15;100.00;101153.38;6280088;20;3652390;-59
2023/01/25 02:00:37;;;;;;;;;85.00;64.50;;;;;-1.03;100.00;101157.00;6310190;20;2874318;-59
2023/01/25 02:03:10;;;;;;;;;86.67;61.33;;;;;-1.13;100.00;101146.38;6281769;20;2901529;-59
2023/01/25 02:05:55;;;;;;;;;87.33;64.67;;;;;-1.15;100.00;101147.25;6312447;20;3658605;-59
2023/01/25 02:08:27;;;;;;;;;86.33;62.33;;;;;-1.08;100.00;101137.63;6312531;20;3661705;-58
2023/01/25 02:10:56;;;;;;;;;78.50;62.00;;;;;-1.23;100.00;101136.63;6310329;20;2883648;-58
2023/01/25 02:13:25;;;;;;;;;76.00;60.50;;;;;-1.23;100.00;101138.38;6282563;20;2871120;-59
2023/01/25 02:15:57;;;;;;;;;86.00;66.00;;;;;-0.88;100.00;101136.06;6277420;20;2900327;-57
2023/01/25 02:18:26;;;;;;;;;83.00;63.00;;;;;-0.81;100.00;101131.72;6314610;20;2870097;-59
2023/01/25 02:20:59;;;;;;;;;83.33;58.33;;;;;-0.74;100.00;101129.16;6277799;20;3641968;-58
2023/01/25 02:24:09;;;;;;;;;77.33;59.67;;;;;-0.67;100.00;101128.31;6307095;20;2881499;-59
2023/01/25 02:26:39;;;;;;;;;73.67;53.00;;;;;-0.75;100.00;101124.72;6311576;20;2898308;-58
2023/01/25 02:29:10;;;;;;;;;82.33;59.67;;;;;-0.77;100.00;101122.97;6313249;20;3651411;-59
2023/01/25 02:31:39;;;;;;;;;78.00;59.50;;;;;-0.90;100.00;101117.56;6312159;20;2872179;-59
2023/01/25 02:34:08;;;;;;;;;74.67;57.00;;;;;-0.71;100.00;101116.00;6282129;20;3638797;-59
2023/01/25 02:36:37;;;;;;;;;70.00;55.00;;;;;-0.74;100.00;101115.97;6311327;20;2877461;-57
2023/01/25 02:39:12;;;;;;;;;65.00;53.00;;;;;-0.65;100.00;101114.28;6280291;20;2500275;-59
2023/01/25 02:41:45;;;;;;;;;81.50;59.00;;;;;-0.81;100.00;101103.59;6278838;20;2883732;-57
2023/01/25 02:44:26;;;;;;;;;79.00;60.33;;;;;-0.85;100.00;101109.72;6278926;20;2888013;-59
2023/01/25 02:46:55;;;;;;;;;80.50;60.50;;;;;-0.78;100.00;101106.25;6312047;20;2871569;-59
2023/01/25 02:49:25;;;;;;;;;80.00;61.00;;;;;-0.69;100.00;101113.34;6281526;20;2894126;-57
2023/01/25 02:51:56;;;;;;;;;85.00;61.00;;;;;-0.70;100.00;101103.69;6310154;20;3658698;-59
2023/01/25 02:54:26;;;;;;;;;76.00;58.00;;;;;-0.90;100.00;101107.03;6312011;20;2881560;-58
2023/01/25 02:56:56;;;;;;;;;77.00;57.00;;;;;-0.67;100.00;101104.56;6280861;20;3650270;-59
2023/01/25 02:59:25;;;;;;;;;60.00;46.00;;;;;-0.78;100.00;101106.25;6310384;20;2873334;-59
2023/01/25 03:01:53;;;;;;;;;69.00;56.00;;;;;-0.86;100.00;101105.31;6276169;20;2500319;-59
2023/01/25 03:04:21;;;;;;;;;63.50;49.50;;;;;-0.71;100.00;101109.81;6274808;20;2500349;-57
2023/01/25 03:06:49;;;;;;;;;66.50;50.00;;;;;-0.69;100.00;101106.31;6277470;20;2495082;-57
2023/01/25 03:09:18;;;;;;;;;63.00;47.00;;;;;-0.56;100.00;101106.41;6280544;20;2874218;-59
2023/01/25 03:11:47;;;;;;;;;68.67;50.00;;;;;-0.83;100.00;101107.97;6278017;20;2880591;-58
2023/01/25 03:14:16;;;;;;;;;60.50;48.00;;;;;-0.95;100.00;101107.88;6308162;20;2874236;-59
2023/01/25 03:16:45;;;;;;;;;67.00;49.50;;;;;-0.97;100.00;101101.72;6280808;20;2870188;-59
2023/01/25 03:19:14;;;;;;;;;68.50;50.00;;;;;-0.78;100.00;101106.25;6281693;20;2871230;-58
2023/01/25 03:21:42;;;;;;;;;63.00;46.50;;;;;-0.91;100.00;101109.66;6280031;20;2856534;-59
2023/01/25 03:24:11;;;;;;;;;60.50;43.50;;;;;-0.89;100.00;101113.22;6278986;20;2874488;-59
2023/01/25 03:29:25;;;;;;;;;57.50;45.00;;;;;-0.67;100.00;101104.56;6282131;20;2500297;-59
2023/01/25 03:31:53;;;;;;;;;61.50;49.00;;;;;-0.62;100.00;101109.00;6282036;20;2493143;-59
2023/01/25 03:34:21;;;;;;;;;55.00;47.00;;;;;-0.71;100.00;101116.00;6282923;20;2497165;-59
2023/01/25 03:36:51;;;;;;;;;56.00;45.00;;;;;-0.93;100.00;101117.56;6287031;20;3629545;-58
2023/01/25 03:39:20;;;;;;;;;64.50;48.00;;;;;-0.84;100.00;101116.75;6317868;20;2859679;-58
2023/01/25 03:41:49;;;;;;;;;52.00;35.00;;;;;-0.96;100.00;101116.66;6284512;20;2890961;-58
2023/01/25 03:44:18;;;;;;;;;64.00;46.50;;;;;-1.07;100.00;101123.59;6315827;20;2878486;-59
2023/01/25 03:46:46;;;;;;;;;60.50;44.00;;;;;-0.83;100.00;101122.91;6282492;20;2487916;-59
2023/01/25 03:49:14;;;;;;;;;66.00;49.00;;;;;-0.93;100.00;101124.59;6279919;20;2489870;-59
2023/01/25 03:51:43;;;;;;;;;65.50;53.00;;;;;-1.09;100.00;101133.22;6284826;20;2855571;-58
2023/01/25 03:54:12;;;;;;;;;86.00;62.33;;;;;-0.99;100.00;101128.06;6285393;20;2899368;-58
2023/01/25 03:56:42;;;;;;;;;88.00;61.67;;;;;-1.05;100.00;101122.75;6316539;20;3652613;-58
2023/01/25 03:59:12;;;;;;;;;82.00;62.67;;;;;-0.96;100.00;101104.34;6313468;20;3631556;-58
2023/01/25 04:01:41;;;;;;;;;78.33;57.33;;;;;-0.94;100.00;101109.66;6318148;20;3648249;-59
2023/01/25 04:04:11;;;;;;;;;75.33;56.00;;;;;-0.96;100.00;101114.03;6315569;20;3644136;-59
2023/01/25 04:06:41;;;;;;;;;75.33;56.67;;;;;-0.92;100.00;101113.19;6317348;20;2887920;-59
2023/01/25 04:09:09;;;;;;;;;76.00;59.50;;;;;-0.75;100.00;101119.47;6310117;20;2500396;-59
2023/01/25 04:11:39;;;;;;;;;81.00;58.00;;;;;-0.89;100.00;101121.13;6286338;20;3652348;-59
2023/01/25 04:14:10;;;;;;;;;85.00;61.33;;;;;-0.75;100.00;101119.47;6314701;20;3645086;-58
2023/01/25 04:16:40;;;;;;;;;84.67;60.67;;;;;-0.54;100.00;101120.50;6316247;20;3653404;-59
2023/01/25 04:19:09;;;;;;;;;78.67;61.00;;;;;-0.38;100.00;101118.84;6315488;20;2884682;-59
2023/01/25 04:21:39;;;;;;;;;83.67;59.67;;;;;-0.29;100.00;101122.44;6313312;20;3654427;-59
2023/01/25 04:24:09;;;;;;;;;72.00;52.00;;;;;-0.27;100.00;101125.94;6312957;20;2892077;-60
2023/01/25 04:26:37;;;;;;;;;66.50;52.50;;;;;-0.21;100.00;101127.75;6318740;20;2855479;-59
2023/01/25 04:29:05;;;;;;;;;68.50;52.00;;;;;-0.41;100.00;101114.44;6277802;20;2495087;-59
2023/01/25 04:31:34;;;;;;;;;72.50;52.00;;;;;-0.35;100.00;101119.72;6283069;20;2870159;-59
2023/01/25 04:34:02;;;;;;;;;67.00;53.00;;;;;-0.12;100.00;101119.00;6278566;20;2500300;-59
2023/01/25 04:36:31;;;;;;;;;62.00;51.00;;;;;-0.08;100.00;101116.38;6285390;20;2860705;-58
2023/01/25 04:38:59;;;;;;;;;65.50;51.50;;;;;-0.16;100.00;101106.63;6284904;20;2861730;-59
2023/01/25 04:41:29;;;;;;;;;76.67;54.67;;;;;-0.16;100.00;101096.06;6282394;20;2888945;-60
2023/01/25 04:43:59;;;;;;;;;82.67;59.67;;;;;-0.06;100.00;101109.31;6313423;20;3651428;-58
2023/01/25 04:46:28;;;;;;;;;85.33;60.33;;;;;-0.16;100.00;101091.69;6316093;20;3652334;-59
2023/01/25 04:48:58;;;;;;;;;82.33;61.67;;;;;-0.13;100.00;101096.09;6311739;20;3646077;-59
2023/01/25 04:51:27;;;;;;;;;80.00;60.00;;;;;-0.20;100.00;101096.97;6313101;20;2889058;-58
2023/01/25 04:53:57;;;;;;;;;81.33;61.00;;;;;0.00;100.00;101103.22;6315424;20;3638822;-59
2023/01/25 04:56:26;;;;;;;;;79.67;58.00;;;;;0.09;100.00;101105.88;6315210;20;3637761;-59
2023/01/25 04:58:55;;;;;;;;;74.50;60.00;;;;;0.09;100.00;101103.25;6316532;20;2875274;-59
2023/01/25 05:01:25;;;;;;;;;68.67;47.67;;;;;0.07;100.00;101104.13;6284100;20;2887896;-58
2023/01/25 05:03:54;;;;;;;;;73.00;57.67;;;;;0.12;100.00;101105.00;6316070;20;2875303;-57
2023/01/25 05:06:23;;;;;;;;;70.50;58.50;;;;;0.06;100.00;101110.28;6315174;20;2868030;-59
2023/01/25 05:08:51;;;;;;;;;71.50;55.00;;;;;0.09;100.00;101116.44;6278956;20;2500307;-57
2023/01/25 05:11:20;;;;;;;;;64.00;52.50;;;;;0.03;100.00;101116.44;6282831;20;2855472;-59
2023/01/25 05:13:48;;;;;;;;;62.00;49.00;;;;;0.20;100.00;101122.66;6281800;20;2500310;-59
2023/01/25 05:16:15;;;;;;;;;63.50;48.00;;;;;0.25;100.00;101125.31;6280758;20;2493068;-58
2023/01/25 05:18:43;;;;;;;;;62.50;44.50;;;;;0.26;100.00;101120.91;6280802;20;2494052;-58
2023/01/25 05:24:04;;;;;;;;;65.50;50.00;;;;;-0.32;100.00;101118.88;6283629;20;2865936;-60
2023/01/25 05:29:20;;;;;;;;;67.50;53.50;;;;;-0.02;100.00;101115.53;6281649;20;2856622;-60
2023/01/25 05:31:49;;;;;;;;;76.00;56.00;;;;;0.03;100.00;101116.44;6276455;20;2494183;-61
2023/01/25 05:34:18;;;;;;;;;89.33;67.67;;;;;0.10;100.00;101114.69;6308971;20;3653449;-60
2023/01/25 05:36:48;;;;;;;;;118.33;87.00;;;;;0.10;100.00;101118.19;6310939;20;3684626;-60
2023/01/25 05:39:18;;;;;;;;;100.67;72.00;;;;;0.17;100.00;101122.63;6280477;20;3672113;-60
2023/01/25 05:41:48;;;;;;;;;96.67;69.00;;;;;0.20;100.00;101120.00;6284658;20;3659627;-59
2023/01/25 05:44:17;;;;;;;;;84.00;60.00;;;;;0.10;100.00;101115.56;6313746;20;3665945;-60
2023/01/25 05:46:47;;;;;;;;;83.00;62.67;;;;;-0.02;100.00;101116.41;6313713;20;2880681;-60
2023/01/25 05:49:17;;;;;;;;;72.00;55.00;;;;;-0.08;100.00;101120.75;6313903;20;2871554;-60
2023/01/25 05:51:47;;;;;;;;;84.67;61.00;;;;;0.08;100.00;101112.06;6282260;20;3656508;-60
2023/01/25 05:54:18;;;;;;;;;84.00;63.00;;;;;0.07;100.00;101112.03;6312706;20;3645210;-60
2023/01/25 05:56:49;;;;;;;;;86.67;63.00;;;;;-0.11;100.00;101108.41;6313742;20;3654440;-60
2023/01/25 05:59:19;;;;;;;;;84.00;62.33;;;;;-0.01;100.00;101117.28;6314615;20;2886822;-60
2023/01/25 06:01:48;;;;;;;;;88.00;63.67;;;;;-0.15;100.00;101118.97;6312116;20;3656517;-59
2023/01/25 06:04:18;;;;;;;;;75.33;58.33;;;;;-0.09;100.00;101129.56;6314429;20;2892027;-59
2023/01/25 06:06:48;;;;;;;;;78.00;60.67;;;;;-0.04;100.00;101128.69;6313691;20;2880511;-60
2023/01/25 06:09:17;;;;;;;;;68.00;51.00;;;;;-0.09;100.00;101129.56;6313829;20;2873233;-60
2023/01/25 06:11:47;;;;;;;;;79.33;58.33;;;;;-0.31;100.00;101132.09;6314032;20;2891088;-59
2023/01/25 06:14:17;;;;;;;;;79.00;55.67;;;;;-0.35;100.00;101132.91;6314631;20;3654521;-60
2023/01/25 06:16:46;;;;;;;;;73.33;54.67;;;;;-0.25;100.00;101133.88;6310895;20;2885878;-60
2023/01/25 06:19:14;;;;;;;;;68.50;55.00;;;;;-0.15;100.00;101135.69;6307244;20;2500539;-60
2023/01/25 06:21:44;;;;;;;;;73.33;56.33;;;;;-0.33;100.00;101136.47;6281540;20;2875419;-60
2023/01/25 06:24:13;;;;;;;;;87.33;57.33;;;;;-0.29;100.00;101140.00;6314671;20;3662779;-60
2023/01/25 06:26:43;;;;;;;;;82.33;60.33;;;;;-0.21;100.00;101146.22;6313651;20;3639969;-60
2023/01/25 06:29:13;;;;;;;;;85.67;63.33;;;;;-0.22;100.00;101139.16;6313723;20;3653471;-58
2023/01/25 06:31:42;;;;;;;;;87.00;66.33;;;;;-0.36;100.00;101141.72;6311532;20;3643990;-60
2023/01/25 06:34:12;;;;;;;;;86.33;64.00;;;;;-0.36;100.00;101139.09;6310516;20;3651387;-60
2023/01/25 06:36:42;;;;;;;;;86.00;63.33;;;;;-0.29;100.00;101147.91;6314548;20;3654420;-61
2023/01/25 06:39:11;;;;;;;;;93.00;69.67;;;;;-0.18;100.00;101140.97;6313740;20;3649240;-60
2023/01/25 06:41:41;;;;;;;;;129.00;107.33;;;;;-0.24;100.00;101128.63;6314900;20;3692011;-59
2023/01/25 06:44:12;;;;;;;;;162.25;131.25;;;;;-0.08;100.00;101141.88;6282327;20;3727412;-59
2023/01/25 06:46:41;;;;;;;;;121.33;106.33;;;;;0.01;100.00;101141.94;6278961;20;3691906;-60
2023/01/25 06:49:10;;;;;;;;;44.00;27.00;;;;;-0.01;100.00;101147.19;6288394;20;2838838;-60
2023/01/25 06:51:40;;;;;;;;;88.33;66.00;;;;;-0.02;100.00;101136.66;6282121;20;3653365;-60
2023/01/25 06:54:09;;;;;;;;;84.00;63.00;;;;;-0.01;100.00;101143.69;6320015;20;3638805;-62
2023/01/25 06:56:38;;;;;;;;;64.00;48.50;;;;;0.03;100.00;101144.56;6319299;20;2869050;-62
2023/01/25 06:59:06;;;;;;;;;69.00;54.00;;;;;0.00;100.00;101145.47;6282865;20;2500304;-62
2023/01/25 07:01:34;;;;;;;;;68.50;50.50;;;;;0.13;100.00;101141.09;6283302;20;2872185;-62
2023/01/25 07:04:03;;;;;;;;;61.00;48.00;;;;;0.07;100.00;101141.06;6287567;20;2865934;-62
2023/01/25 07:06:34;;;;;;;;;68.50;55.50;;;;;-0.07;100.00;101154.22;6286780;20;2871223;-62
2023/01/25 07:09:08;;;;;;;;;78.00;57.33;;;;;0.05;100.00;101151.63;6286105;20;3623743;-63
2023/01/25 07:11:37;;;;;;;;;74.00;55.50;;;;;0.19;100.00;101152.59;6319170;20;2881561;-62
2023/01/25 07:14:06;;;;;;;;;84.00;60.33;;;;;0.37;100.00;101145.59;6284779;20;3652420;-62
2023/01/25 07:16:35;;;;;;;;;77.33;59.00;;;;;0.38;100.00;101147.38;6319768;20;3634657;-62
2023/01/25 07:19:09;;;;;;;;;81.00;61.67;;;;;0.10;100.00;101152.53;6316060;20;2888906;-62
2023/01/25 07:21:39;;;;;;;;;92.00;66.00;;;;;0.33;100.00;101157.91;6317842;20;3644010;-62
2023/01/25 07:24:19;;;;;;;;;84.33;64.67;;;;;0.33;100.00;101152.63;6318615;20;3646083;-62
2023/01/25 07:26:49;;;;;;;;;87.67;66.00;;;;;0.29;100.00;101152.59;6316393;20;3657566;-62
2023/01/25 07:29:18;;;;;;;;;88.00;66.00;;;;;0.35;100.00;101158.81;6315350;20;3637826;-62
2023/01/25 07:31:48;;;;;;;;;84.33;63.00;;;;;0.54;100.00;101157.09;6317308;20;3646066;-63
2023/01/25 07:34:18;;;;;;;;;90.00;67.00;;;;;0.72;100.00;101156.28;6319297;20;2842947;-62
2023/01/25 07:36:47;;;;;;;;;91.00;70.00;;;;;0.63;100.00;101154.50;6317208;20;3643084;-62
2023/01/25 07:39:17;;;;;;;;;112.67;99.67;;;;;0.65;100.00;101150.09;6318780;20;3694017;-62
2023/01/25 07:41:47;;;;;;;;;135.25;108.75;;;;;0.68;100.00;101153.63;6285545;20;3713867;-62
2023/01/25 07:44:17;;;;;;;;;100.67;75.00;;;;;0.70;100.00;101150.09;6285292;20;3680482;-62
2023/01/25 07:46:47;;;;;;;;;81.33;62.00;;;;;0.86;100.00;101158.94;6283889;20;3640887;-63
2023/01/25 07:49:16;;;;;;;;;79.00;60.67;;;;;0.94;100.00;101148.38;6318599;20;3645204;-63
2023/01/25 07:51:44;;;;;;;;;71.00;56.00;;;;;0.85;100.00;101147.50;6314945;20;2500331;-62
2023/01/25 07:54:13;;;;;;;;;76.00;59.50;;;;;0.98;100.00;101156.34;6285367;20;2882674;-62
2023/01/25 07:56:43;;;;;;;;;82.33;61.33;;;;;1.02;100.00;101149.28;6287857;20;3649573;-63
2023/01/25 07:59:13;;;;;;;;;89.33;67.00;;;;;1.02;100.00;101155.44;6316595;20;3639929;-62
2023/01/25 08:01:42;;;;;;;;;85.00;63.33;;;;;0.83;100.00;101151.91;6318224;20;3653383;-62
2023/01/25 08:04:11;;;;;;;;;68.00;54.50;;;;;0.97;100.00;101159.84;6318419;20;2853503;-62
2023/01/25 08:06:41;;;;;;;;;72.67;55.67;;;;;1.20;100.00;101154.56;6284933;20;2867081;-62
2023/01/25 08:09:18;;;;;;;;;66.50;49.50;;;;;1.23;100.00;101161.63;6318464;20;2861793;-62
2023/01/25 08:11:52;;;;;;;;;62.50;46.50;;;;;1.06;100.00;101159.88;6287075;20;2868991;-62
2023/01/25 08:14:23;;;;;;;;;63.33;47.00;;;;;0.87;100.00;101160.72;6287146;20;2879550;-62
2023/01/25 08:16:52;;;;;;;;;62.50;50.50;;;;;0.81;100.00;101161.56;6315824;20;2866308;-62
2023/01/25 08:19:21;;;;;;;;;64.00;48.50;;;;;0.75;100.00;101158.06;6285502;20;2877394;-62
2023/01/25 08:21:51;;;;;;;;;71.00;53.33;;;;;0.77;100.00;101156.31;6286277;20;2889930;-62
2023/01/25 08:24:19;;;;;;;;;62.50;46.50;;;;;1.05;100.00;101150.19;6316903;20;2862822;-62
2023/01/25 08:26:49;;;;;;;;;54.00;44.50;;;;;1.02;100.00;101154.56;6285125;20;2866025;-62
2023/01/25 08:29:18;;;;;;;;;69.00;51.00;;;;;1.10;100.00;101156.31;6283359;20;2878424;-62
2023/01/25 08:31:47;;;;;;;;;69.67;52.00;;;;;1.22;100.00;101149.31;6285735;20;2882586;-62
2023/01/25 08:34:17;;;;;;;;;70.00;55.33;;;;;1.27;100.00;101153.72;6315476;20;2877558;-62
2023/01/25 08:36:46;;;;;;;;;79.67;57.00;;;;;1.25;100.00;101147.53;6318045;20;2895240;-62
2023/01/25 08:39:17;;;;;;;;;69.33;53.33;;;;;1.52;100.00;101158.97;6316387;20;2881763;-64
2023/01/25 08:41:46;;;;;;;;;76.00;54.67;;;;;1.71;100.00;101157.19;6318322;20;3646131;-62
2023/01/25 08:44:21;;;;;;;;;83.67;65.00;;;;;1.59;100.00;101157.22;6316569;20;3658611;-62
2023/01/25 08:46:52;;;;;;;;;69.00;54.67;;;;;1.51;100.00;101149.28;6316905;20;2868013;-61
2023/01/25 08:49:21;;;;;;;;;77.00;59.33;;;;;1.67;100.00;101148.38;6313761;20;3641903;-62
2023/01/25 08:51:49;;;;;;;;;67.00;55.00;;;;;1.69;100.00;101151.03;6311852;20;2500286;-62
2023/01/25 08:54:18;;;;;;;;;74.50;56.00;;;;;1.60;100.00;101151.03;6284731;20;2878583;-62
2023/01/25 08:56:48;;;;;;;;;69.67;52.33;;;;;1.62;100.00;101142.22;6282370;20;2889995;-62
2023/01/25 08:59:16;;;;;;;;;64.00;50.00;;;;;1.63;100.00;101138.66;6316720;20;2869082;-61
2023/01/25 09:01:46;;;;;;;;;72.00;53.67;;;;;1.94;100.00;101147.44;6284956;20;3634700;-62
2023/01/25 09:04:15;;;;;;;;;75.67;59.67;;;;;1.94;100.00;101144.78;6316780;20;2881704;-62
2023/01/25 09:06:44;;;;;;;;;65.00;49.00;;;;;1.66;100.00;101146.63;6310445;20;2500331;-62
2023/01/25 09:09:13;;;;;;;;;77.33;56.00;;;;;1.60;100.00;101143.09;6285408;20;3646107;-62
2023/01/25 09:11:43;;;;;;;;;66.00;52.00;;;;;1.66;100.00;101143.06;6315571;20;2872270;-62
2023/01/25 09:14:11;;;;;;;;;63.00;48.50;;;;;1.56;100.00;101141.34;6315220;20;2871101;-62
2023/01/25 09:16:41;;;;;;;;;85.33;64.67;;;;;1.75;100.00;101141.31;6284691;20;2891954;-62
2023/01/25 09:19:11;;;;;;;;;65.33;51.00;;;;;1.60;100.00;101132.50;6316767;20;2879597;-62
2023/01/25 09:21:40;;;;;;;;;61.00;49.00;;;;;1.79;100.00;101131.59;6315919;20;2851314;-62
2023/01/25 09:24:09;;;;;;;;;85.67;65.00;;;;;2.13;100.00;101132.38;6284222;20;3667964;-62
2023/01/25 09:26:41;;;;;;;;;58.50;48.00;;;;;1.90;100.00;101137.75;6315543;20;2859789;-62
2023/01/25 09:29:16;;;;;;;;;63.00;50.00;;;;;1.89;100.00;101128.03;6280277;20;2500277;-62
2023/01/25 09:31:45;;;;;;;;;69.50;56.00;;;;;2.24;100.00;101135.00;6284955;20;2873194;-62
2023/01/25 09:34:14;;;;;;;;;54.00;45.50;;;;;2.15;100.00;101129.72;6281178;20;2498206;-62
2023/01/25 09:36:43;;;;;;;;;58.00;46.00;;;;;1.92;100.00;101133.34;6284544;20;2864835;-62
2023/01/25 09:39:12;;;;;;;;;64.50;45.50;;;;;1.90;100.00;101126.28;6282666;20;2875275;-62
2023/01/25 09:42:06;;;;;;;;;75.00;55.67;;;;;2.01;100.00;101128.91;6284271;20;3646209;-62
2023/01/25 09:45:20;;;;;;;;;64.00;51.33;;;;;2.32;100.00;101122.59;6317541;20;3603391;-62
2023/01/25 09:48:03;;;;;;;;;67.00;51.50;;;;;2.22;100.00;101122.63;6280314;20;2500295;-63
2023/01/25 09:51:06;;;;;;;;;100.00;86.33;;;;;2.17;100.00;101117.34;6280836;20;3671071;-62
2023/01/25 09:53:52;;;;;;;;;64.00;47.00;;;;;2.14;100.00;101117.38;6315490;20;2858647;-62
2023/01/25 09:56:29;;;;;;;;;51.00;40.00;;;;;2.25;100.00;101104.94;6281952;20;2860689;-62
2023/01/25 09:59:29;;;;;;;;;48.00;36.00;;;;;2.14;100.00;101101.47;6283224;20;3625285;-62
2023/01/25 10:02:29;;;;;;;;;60.33;46.67;;;;;2.41;100.00;101095.13;6312400;20;2874250;-62
2023/01/25 10:05:16;;;;;;;;;46.33;34.00;;;;;2.32;100.00;101092.56;6314088;20;2873406;-62
2023/01/25 10:08:11;;;;;;;;;37.00;33.00;;;;;1.90;100.00;101090.06;6312417;20;2859715;-62
2023/01/25 10:10:43;;;;;;;;;44.50;38.00;;;;;2.31;100.00;101089.00;6279886;20;2869034;-62
2023/01/25 10:13:20;;;;;;;;;68.00;45.50;;;;;2.30;100.00;101087.25;6281014;20;2878404;-62
2023/01/25 10:16:01;;;;;;;;;58.67;43.00;;;;;2.17;100.00;101074.94;6278840;20;2884908;-62
2023/01/25 10:18:44;;;;;;;;;35.50;25.00;;;;;2.45;100.00;101072.13;6311701;20;2854464;-62
2023/01/25 10:21:56;;;;;;;;;41.50;39.50;;;;;2.30;100.00;101071.34;6281602;20;2836706;-62
2023/01/25 10:25:11;;;;;;;;;42.00;32.50;;;;;2.34;100.00;101072.19;6279637;20;2857593;-63
2023/01/25 10:28:04;;;;;;;;;48.00;36.33;;;;;2.36;100.00;101060.69;6280770;20;3627427;-62
2023/01/25 10:30:57;;;;;;;;;48.67;40.00;;;;;2.64;100.00;101060.53;6312008;20;3628482;-62
2023/01/25 10:33:28;;;;;;;;;43.50;38.00;;;;;2.62;100.00;101054.38;6315069;20;2868012;-62
2023/01/25 10:36:02;;;;;;;;;38.50;30.50;;;;;2.38;100.00;101058.06;6279147;20;2839871;-63
2023/01/25 10:38:48;;;;;;;;;40.00;33.00;;;;;2.71;100.00;101051.63;6281986;20;2862775;-62
2023/01/25 10:41:40;;;;;;;;;48.67;35.33;;;;;2.41;100.00;101056.25;6281500;20;3626320;-63
2023/01/25 10:44:23;;;;;;;;;45.00;31.50;;;;;2.58;100.00;101047.31;6311267;20;2869094;-63
2023/01/25 10:47:20;;;;;;;;;45.33;37.00;;;;;2.59;100.00;101042.00;6283642;20;2868114;-62
2023/01/25 10:49:56;;;;;;;;;34.00;23.50;;;;;2.72;100.00;101032.19;6310768;20;2856527;-62
2023/01/25 10:52:30;;;;;;;;;42.00;35.00;;;;;2.63;100.00;101029.59;6279664;20;2864208;-62
2023/01/25 10:55:22;;;;;;;;;48.67;39.67;;;;;2.72;100.00;101032.19;6280702;20;3604511;-62
2023/01/25 10:57:59;;;;;;;;;38.50;36.00;;;;;3.11;100.00;101030.09;6311897;20;2856626;-62
2023/01/25 11:00:40;;;;;;;;;54.33;42.00;;;;;2.99;100.00;101031.09;6278449;20;2856573;-63
2023/01/25 11:03:21;;;;;;;;;54.00;40.50;;;;;3.29;100.00;101023.72;6312215;20;2877368;-62
2023/01/25 11:05:56;;;;;;;;;56.67;39.67;;;;;3.01;100.00;101021.34;6279953;20;3631908;-62
2023/01/25 11:08:36;;;;;;;;;46.33;37.67;;;;;3.14;100.00;101019.47;6310821;20;2873401;-62
2023/01/25 11:11:31;;;;;;;;;53.00;44.00;;;;;3.42;100.00;101019.16;6310032;20;2865957;-62
2023/01/25 11:14:00;;;;;;;;;49.67;37.33;;;;;3.28;100.00;101014.00;6279211;20;2854616;-62
2023/01/25 11:16:31;;;;;;;;;52.00;36.00;;;;;3.08;100.00;101008.88;6309480;20;3660684;-62
2023/01/25 11:19:02;;;;;;;;;65.00;51.50;;;;;3.07;100.00;101001.81;6311712;20;2853434;-62
2023/01/25 11:21:34;;;;;;;;;53.67;37.33;;;;;3.37;100.00;101002.41;6280055;20;2884781;-62